Time;durP1;ratioP1;P1;durP2;ratioP2;P2;SDS_P1;SDS_P2;PMS_P1;PMS_P2;Temp;Humidity;BMP_temperature;BMP_pressure;BME280_temperature;BME280_humidity;BME280_pressure;Samples;Min_cycle;Max_cycle;Signal;HPM_P1;HPM_P2
2024/03/14 00:01:07;;;;;;;13.40;6.63;;;;;;;9.57;100.00;101229.66;5049708;28;20025;-75
2024/03/14 00:03:33;;;;;;;10.52;6.32;;;;;;;9.52;100.00;101236.06;5030441;28;20549;-76
2024/03/14 00:06:01;;;;;;;17.60;7.50;;;;;;;9.47;100.00;101233.09;5032838;28;20025;-76
2024/03/14 00:08:26;;;;;;;12.43;6.28;;;;;;;9.41;100.00;101225.06;5034931;28;20037;-76
2024/03/14 00:10:54;;;;;;;10.40;6.13;;;;;;;9.41;100.00;101231.06;5046968;28;20029;-76
2024/03/14 00:13:20;;;;;;;14.13;6.32;;;;;;;9.40;100.00;101232.03;5048566;28;20070;-76
2024/03/14 00:15:46;;;;;;;13.05;7.07;;;;;;;9.42;100.00;101229.28;5036036;28;20581;-75
2024/03/14 00:18:11;;;;;;;13.57;6.57;;;;;;;9.37;100.00;101227.09;5035884;28;20076;-75
2024/03/14 00:20:39;;;;;;;11.23;7.05;;;;;;;9.39;100.00;101235.56;5046885;28;20021;-76
2024/03/14 00:23:05;;;;;;;12.18;7.22;;;;;;;9.44;100.00;101230.78;5045781;28;20037;-76
2024/03/14 00:25:30;;;;;;;12.25;6.88;;;;;;;9.35;100.00;101224.66;5047328;28;20036;-75
2024/03/14 00:27:57;;;;;;;12.90;6.65;;;;;;;9.34;100.00;101224.78;5027908;28;20056;-77
2024/03/14 00:30:22;;;;;;;12.20;7.53;;;;;;;9.40;100.00;101223.41;5046555;28;20021;-75
2024/03/14 00:32:49;;;;;;;11.48;6.72;;;;;;;9.33;100.00;101225.75;5045715;28;20384;-76
2024/03/14 00:35:17;;;;;;;13.25;7.65;;;;;;;9.33;100.00;101218.81;5045816;28;20399;-76
2024/03/14 00:37:44;;;;;;;12.25;6.78;;;;;;;9.28;100.00;101215.00;5048434;28;20656;-76
2024/03/14 00:40:11;;;;;;;13.02;6.28;;;;;;;9.25;100.00;101215.25;5049061;28;20036;-76
2024/03/14 00:42:42;;;;;;;12.00;6.85;;;;;;;9.24;100.00;101211.84;5057540;28;20047;-77
2024/03/14 00:45:09;;;;;;;13.35;7.70;;;;;;;9.24;100.00;101211.84;5063118;28;20132;-77
2024/03/14 00:47:35;;;;;;;15.07;8.07;;;;;;;9.33;100.00;101210.22;5032410;28;20037;-75
2024/03/14 00:50:01;;;;;;;13.40;7.80;;;;;;;9.32;100.00;101212.00;5048023;28;20598;-75
2024/03/14 00:52:27;;;;;;;13.27;7.43;;;;;;;9.37;100.00;101213.38;5041006;28;20162;-77
2024/03/14 00:54:53;;;;;;;13.02;7.88;;;;;;;9.27;100.00;101209.00;5044736;28;20372;-76
2024/03/14 00:57:18;;;;;;;11.68;7.70;;;;;;;9.29;100.00;101207.09;5038962;28;20033;-76
2024/03/14 00:59:44;;;;;;;13.77;7.38;;;;;;;9.24;100.00;101201.50;5043332;28;20369;-76
2024/03/14 01:02:09;;;;;;;16.50;8.38;;;;;;;9.21;100.00;101206.97;5056980;28;20033;-78
2024/03/14 01:04:35;;;;;;;13.52;7.57;;;;;;;9.13;100.00;101202.47;5046140;28;20040;-76
2024/03/14 01:07:00;;;;;;;12.23;7.68;;;;;;;9.08;100.00;101199.47;5045070;28;20036;-77
2024/03/14 01:09:27;;;;;;;16.02;8.15;;;;;;;9.12;100.00;101200.03;5038832;28;20035;-76
2024/03/14 01:11:53;;;;;;;12.43;7.25;;;;;;;9.05;100.00;101204.09;5032284;28;20039;-76
2024/03/14 01:14:19;;;;;;;14.55;7.90;;;;;;;9.00;100.00;101194.16;5051497;28;20036;-76
2024/03/14 01:16:44;;;;;;;16.92;7.97;;;;;;;8.96;100.00;101196.19;5069551;28;20657;-76
2024/03/14 01:19:11;;;;;;;11.85;7.80;;;;;;;8.97;100.00;101202.19;5033102;28;20024;-77
2024/03/14 01:21:37;;;;;;;14.32;8.43;;;;;;;8.95;100.00;101207.50;5034338;28;20567;-76
2024/03/14 01:24:03;;;;;;;15.52;8.65;;;;;;;8.90;100.00;101203.69;5048884;28;20029;-76
2024/03/14 01:26:29;;;;;;;11.45;7.40;;;;;;;8.86;100.00;101205.72;5043923;28;20043;-77
2024/03/14 01:28:54;;;;;;;15.82;8.95;;;;;;;8.94;100.00;101195.50;5043540;28;20048;-76
2024/03/14 01:31:20;;;;;;;12.73;6.80;;;;;;;8.87;100.00;101198.78;5045791;28;20091;-76
2024/03/14 01:33:46;;;;;;;15.65;7.38;;;;;;;8.84;100.00;101196.47;5048535;28;20036;-76
2024/03/14 01:36:11;;;;;;;14.43;8.32;;;;;;;8.81;100.00;101186.41;5055108;28;20036;-76
2024/03/14 01:38:36;;;;;;;10.85;6.93;;;;;;;8.77;100.00;101188.44;5064192;28;20036;-78
2024/03/14 01:41:02;;;;;;;10.35;7.13;;;;;;;8.74;100.00;101183.53;5046362;28;20121;-77
2024/03/14 01:43:27;;;;;;;13.75;7.25;;;;;;;8.72;100.00;101186.25;5049831;28;20051;-77
2024/03/14 01:45:53;;;;;;;15.82;8.07;;;;;;;8.68;100.00;101182.31;5037891;28;20033;-77
2024/03/14 01:48:18;;;;;;;14.63;7.32;;;;;;;8.64;100.00;101178.34;5039927;28;20082;-76
2024/03/14 01:50:44;;;;;;;10.07;7.15;;;;;;;8.63;100.00;101178.50;5059561;28;20047;-77
2024/03/14 01:53:10;;;;;;;15.32;7.78;;;;;;;8.61;100.00;101180.38;5048252;28;20033;-75
2024/03/14 01:55:36;;;;;;;13.90;7.72;;;;;;;8.56;100.00;101173.03;5047639;28;20033;-76
2024/03/14 01:58:02;;;;;;;11.13;6.93;;;;;;;8.51;100.00;101176.03;5050314;28;20036;-77
2024/03/14 02:00:35;;;;;;;15.38;7.55;;;;;;;8.49;100.00;101174.50;5053351;28;20035;-77
2024/03/14 02:03:02;;;;;;;16.05;7.60;;;;;;;8.45;100.00;101168.78;5050706;28;20494;-76
2024/03/14 02:05:36;;;;;;;9.77;6.32;;;;;;;8.41;100.00;101169.97;5041568;28;20061;-76
2024/03/14 02:08:04;;;;;;;11.23;7.28;;;;;;;8.38;100.00;101172.81;5053561;28;20127;-75
2024/03/14 02:10:30;;;;;;;11.02;6.47;;;;;;;8.35;100.00;101167.94;5057049;28;20033;-76
2024/03/14 02:12:55;;;;;;;11.82;7.72;;;;;;;8.32;100.00;101168.19;5051193;28;20124;-75
2024/03/14 02:15:23;;;;;;;10.45;7.45;;;;;;;8.29;100.00;101166.69;5066961;28;20024;-76
2024/03/14 02:17:50;;;;;;;13.15;7.00;;;;;;;8.24;100.00;101168.03;5048517;28;20123;-77
2024/03/14 02:20:16;;;;;;;12.13;7.35;;;;;;;8.20;100.00;101162.31;5065999;28;20036;-76
2024/03/14 02:22:41;;;;;;;15.05;8.15;;;;;;;8.18;100.00;101169.38;5035847;28;20029;-75
2024/03/14 02:25:07;;;;;;;14.63;7.32;;;;;;;8.14;100.00;101161.06;5036494;28;20606;-76
2024/03/14 02:27:34;;;;;;;12.35;7.30;;;;;;;8.12;100.00;101151.81;5053430;28;20039;-76
2024/03/14 02:30:00;;;;;;;11.95;7.88;;;;;;;8.06;100.00;101154.91;5046307;28;20058;-77
2024/03/14 02:32:26;;;;;;;12.48;6.70;;;;;;;8.02;100.00;101156.13;5050109;28;20048;-76
2024/03/14 02:34:51;;;;;;;11.13;6.85;;;;;;;7.97;100.00;101151.38;5046394;28;20522;-77
2024/03/14 02:37:17;;;;;;;9.98;6.78;;;;;;;7.95;100.00;101150.69;5045307;28;20037;-77
2024/03/14 02:39:44;;;;;;;9.73;6.60;;;;;;;7.93;100.00;101155.97;5049390;28;20017;-76
2024/03/14 02:42:11;;;;;;;12.68;7.05;;;;;;;7.92;100.00;101151.75;5044723;28;20036;-76
2024/03/14 02:44:37;;;;;;;12.15;7.75;;;;;;;7.89;100.00;101149.44;5034635;28;20605;-76
2024/03/14 02:47:02;;;;;;;11.32;6.65;;;;;;;7.86;100.00;101144.50;5033283;28;20090;-76
2024/03/14 02:49:28;;;;;;;14.55;7.05;;;;;;;7.84;100.00;101149.00;5027368;28;20392;-78
2024/03/14 02:51:53;;;;;;;9.63;6.50;;;;;;;7.82;100.00;101142.31;5046861;28;20067;-77
2024/03/14 02:54:19;;;;;;;12.23;6.60;;;;;;;7.79;100.00;101143.41;5047813;28;20029;-78
2024/03/14 02:56:47;;;;;;;10.85;6.45;;;;;;;7.75;100.00;101139.44;5048032;28;20511;-76
2024/03/14 02:59:19;;;;;;;13.05;6.07;;;;;;;7.73;100.00;101138.75;5058169;28;20091;-76
2024/03/14 03:01:45;;;;;;;9.32;6.53;;;;;;;7.71;100.00;101135.50;5039243;28;20033;-76
2024/03/14 03:04:11;;;;;;;9.93;6.30;;;;;;;7.69;100.00;101127.06;5045192;28;20036;-77
2024/03/14 03:06:44;;;;;;;9.25;5.95;;;;;;;7.66;100.00;101137.63;5045359;28;20028;-77
2024/03/14 03:09:11;;;;;;;9.93;6.22;;;;;;;7.64;100.00;101127.44;5041830;28;20062;-76
2024/03/14 03:11:37;;;;;;;9.68;6.07;;;;;;;7.60;100.00;101124.28;5046129;28;20033;-76
2024/03/14 03:14:05;;;;;;;9.25;6.47;;;;;;;7.60;100.00;101128.63;5028228;28;20033;-76
2024/03/14 03:16:30;;;;;;;11.25;6.63;;;;;;;7.60;100.00;101133.78;5027209;28;20467;-76
2024/03/14 03:18:58;;;;;;;10.05;5.95;;;;;;;7.58;100.00;101122.78;5053760;28;20043;-76
2024/03/14 03:21:24;;;;;;;10.68;6.38;;;;;;;7.58;100.00;101131.34;5051695;28;20064;-76
2024/03/14 03:23:50;;;;;;;13.70;6.32;;;;;;;7.55;100.00;101126.44;5050641;28;20078;-78
2024/03/14 03:26:15;;;;;;;10.10;6.07;;;;;;;7.53;100.00;101127.50;5053030;28;20033;-76
2024/03/14 03:28:40;;;;;;;9.93;5.63;;;;;;;7.51;100.00;101124.25;5045004;28;20052;-76
2024/03/14 03:31:08;;;;;;;8.63;5.90;;;;;;;7.50;100.00;101122.63;5041646;28;20044;-76
2024/03/14 03:33:34;;;;;;;16.55;6.03;;;;;;;7.48;100.00;101117.59;5044170;28;20029;-75
2024/03/14 03:36:04;;;;;;;9.75;6.05;;;;;;;7.48;100.00;101116.75;5043725;28;20128;-77
2024/03/14 03:38:33;;;;;;;9.43;6.55;;;;;;;7.46;100.00;101122.06;5050081;28;20032;-77
2024/03/14 03:40:59;;;;;;;10.95;5.80;;;;;;;7.45;100.00;101119.59;5046225;28;20079;-75
2024/03/14 03:43:26;;;;;;;9.13;5.55;;;;;;;7.44;100.00;101116.22;5043775;28;20495;-76
2024/03/14 03:45:52;;;;;;;11.00;5.40;;;;;;;7.44;100.00;101115.38;5015812;28;20029;-76
2024/03/14 03:48:17;;;;;;;9.90;5.30;;;;;;;7.40;100.00;101115.63;5030755;28;20063;-77
2024/03/14 03:50:43;;;;;;;9.93;5.93;;;;;;;7.36;100.00;101109.06;5030569;28;20032;-76
2024/03/14 03:53:08;;;;;;;8.52;5.93;;;;;;;7.35;100.00;101109.22;5041281;28;20056;-76
2024/03/14 03:55:34;;;;;;;10.68;5.43;;;;;;;7.32;100.00;101110.28;5044712;28;20044;-75
2024/03/14 03:58:00;;;;;;;8.55;5.18;;;;;;;7.31;100.00;101113.81;5028414;28;20040;-77
2024/03/14 04:00:44;;;;;;;12.32;5.45;;;;;;;7.29;100.00;101107.97;5032993;28;20053;-76
2024/03/14 04:03:20;;;;;;;9.88;5.13;;;;;;;7.28;100.00;101100.34;5044863;28;20033;-77
2024/03/14 04:05:46;;;;;;;13.55;5.13;;;;;;;7.26;100.00;101100.47;5019309;28;20116;-76
2024/03/14 04:08:15;;;;;;;8.48;5.50;;;;;;;7.25;100.00;101101.41;5032937;28;20086;-76
2024/03/14 04:10:41;;;;;;;9.43;5.43;;;;;;;7.21;100.00;101103.44;5046041;28;20471;-76
2024/03/14 04:13:10;;;;;;;6.88;4.63;;;;;;;7.19;100.00;101097.56;5030348;28;20041;-75
2024/03/14 04:15:36;;;;;;;9.95;5.68;;;;;;;7.16;100.00;101103.00;5034333;28;20158;-76
2024/03/14 04:18:02;;;;;;;11.43;5.47;;;;;;;7.16;100.00;101102.19;5036597;28;20037;-76
2024/03/14 04:20:28;;;;;;;8.70;5.13;;;;;;;7.14;100.00;101099.75;5049804;28;20024;-78
2024/03/14 04:22:54;;;;;;;7.10;5.18;;;;;;;7.12;100.00;101096.47;5059120;28;20385;-75
2024/03/14 04:25:20;;;;;;;9.75;4.93;;;;;;;7.10;100.00;101097.53;5029501;28;20029;-78
2024/03/14 04:27:52;;;;;;;9.70;5.53;;;;;;;7.07;100.00;101096.03;5050021;28;20047;-77
2024/03/14 04:30:21;;;;;;;7.32;4.38;;;;;;;7.06;100.00;101088.41;5063153;28;20036;-76
2024/03/14 04:32:50;;;;;;;10.05;4.60;;;;;;;7.03;100.00;101089.47;5064383;28;20032;-75
2024/03/14 04:35:17;;;;;;;7.07;4.70;;;;;;;7.00;100.00;101082.78;5040186;28;20036;-76
2024/03/14 04:37:43;;;;;;;8.40;4.85;;;;;;;6.98;100.00;101082.09;5028982;28;20072;-77
2024/03/14 04:40:13;;;;;;;9.73;5.00;;;;;;;6.97;100.00;101087.41;5046519;28;20412;-75
2024/03/14 04:42:42;;;;;;;7.80;4.70;;;;;;;6.93;100.00;101083.44;5032946;28;20047;-75
2024/03/14 04:45:12;;;;;;;9.35;4.80;;;;;;;6.90;100.00;101081.94;5065634;28;20029;-76
2024/03/14 04:47:39;;;;;;;6.50;4.50;;;;;;;6.87;100.00;101081.34;5051456;28;20044;-76
2024/03/14 04:50:10;;;;;;;7.95;4.78;;;;;;;6.82;100.00;101074.81;5050438;28;20028;-76
2024/03/14 04:52:39;;;;;;;7.85;4.85;;;;;;;6.80;100.00;101081.06;5034221;28;20050;-76
2024/03/14 04:55:08;;;;;;;8.43;5.00;;;;;;;6.77;100.00;101079.53;5063417;28;20036;-75
2024/03/14 04:57:34;;;;;;;10.57;4.25;;;;;;;6.75;100.00;101071.09;5049172;28;20037;-75
2024/03/14 05:00:00;;;;;;;10.00;5.25;;;;;;;6.74;100.00;101072.06;5049804;28;20041;-74
2024/03/14 05:02:25;;;;;;;11.50;4.72;;;;;;;6.69;100.00;101083.69;5063268;28;20041;-76
2024/03/14 05:04:51;;;;;;;9.90;4.93;;;;;;;6.66;100.00;101083.91;5051140;28;20522;-76
2024/03/14 05:07:16;;;;;;;8.48;5.57;;;;;;;6.62;100.00;101081.56;5045556;28;20483;-76
2024/03/14 05:09:43;;;;;;;8.88;4.50;;;;;;;6.57;100.00;101076.00;5052621;28;20037;-76
2024/03/14 05:12:09;;;;;;;7.30;4.75;;;;;;;6.56;100.00;101083.84;5062743;28;20394;-76
2024/03/14 05:14:36;;;;;;;12.75;5.43;;;;;;;6.51;100.00;101085.97;5046269;28;20033;-76
2024/03/14 05:17:02;;;;;;;8.68;4.88;;;;;;;6.48;100.00;101083.63;5049663;28;20032;-76
2024/03/14 05:19:27;;;;;;;7.72;4.60;;;;;;;6.46;100.00;101082.91;5064117;28;20025;-77
2024/03/14 05:21:52;;;;;;;9.13;5.10;;;;;;;6.42;100.00;101075.47;5054340;28;20487;-75
2024/03/14 05:24:18;;;;;;;10.52;4.35;;;;;;;6.42;100.00;101082.34;5045521;28;20510;-76
2024/03/14 05:26:44;;;;;;;8.00;4.95;;;;;;;6.39;100.00;101080.84;5036377;28;20029;-75
2024/03/14 05:29:09;;;;;;;9.32;4.82;;;;;;;6.34;100.00;101077.81;5049588;28;20043;-77
2024/03/14 05:31:35;;;;;;;7.68;4.93;;;;;;;6.30;100.00;101073.03;5050050;28;20028;-76
2024/03/14 05:34:01;;;;;;;7.93;4.75;;;;;;;6.26;100.00;101076.78;5065113;28;21273;-76
2024/03/14 05:36:26;;;;;;;8.32;5.07;;;;;;;6.24;100.00;101082.06;5033107;28;20036;-76
2024/03/14 05:38:52;;;;;;;8.85;4.88;;;;;;;6.20;100.00;101070.38;5053156;28;20045;-76
2024/03/14 05:41:17;;;;;;;9.20;4.88;;;;;;;6.17;100.00;101078.31;5063959;28;20028;-76
2024/03/14 05:43:45;;;;;;;10.00;4.90;;;;;;;6.11;100.00;101064.16;5031302;28;20115;-77
2024/03/14 05:46:11;;;;;;;6.90;4.63;;;;;;;6.10;100.00;101074.59;5032587;28;20048;-76
2024/03/14 05:48:36;;;;;;;8.50;4.90;;;;;;;6.06;100.00;101079.16;5065337;28;20032;-77
2024/03/14 05:51:02;;;;;;;13.00;5.03;;;;;;;6.04;100.00;101075.88;5049796;28;20082;-77
2024/03/14 05:53:30;;;;;;;7.28;4.70;;;;;;;6.03;100.00;101080.22;5053339;28;20466;-74
2024/03/14 05:55:56;;;;;;;7.93;5.00;;;;;;;6.01;100.00;101074.38;5066194;28;20047;-76
2024/03/14 05:58:22;;;;;;;7.72;5.18;;;;;;;5.99;100.00;101078.00;5053519;28;20048;-75
2024/03/14 06:00:47;;;;;;;12.38;6.15;;;;;;;5.99;100.00;101072.84;5053368;28;20479;-76
2024/03/14 06:03:13;;;;;;;11.68;6.10;;;;;;;6.05;100.00;101067.22;5058741;28;20552;-76
2024/03/14 06:05:39;;;;;;;11.25;6.40;;;;;;;6.01;100.00;101064.06;5039895;28;20479;-76
2024/03/14 06:08:04;;;;;;;14.65;6.05;;;;;;;5.96;100.00;101066.19;5052677;28;20041;-76
2024/03/14 06:10:30;;;;;;;14.07;6.13;;;;;;;5.98;100.00;101069.44;5065967;28;20025;-75
2024/03/14 06:12:55;;;;;;;10.18;6.03;;;;;;;5.94;100.00;101073.19;5066838;28;20048;-76
2024/03/14 06:15:21;;;;;;;12.93;5.97;;;;;;;5.91;100.00;101073.41;5047260;28;20040;-75
2024/03/14 06:17:50;;;;;;;14.05;5.57;;;;;;;5.90;100.00;101083.84;5064728;28;20036;-77
2024/03/14 06:20:18;;;;;;;10.45;5.78;;;;;;;5.87;100.00;101082.31;5037206;28;20040;-77
2024/03/14 06:22:44;;;;;;;12.40;6.32;;;;;;;5.91;100.00;101078.56;5051600;28;20036;-76
2024/03/14 06:25:10;;;;;;;7.78;5.65;;;;;;;5.88;100.00;101085.69;5044896;28;20036;-76
2024/03/14 06:27:39;;;;;;;12.57;6.13;;;;;;;5.86;100.00;101080.69;5048360;28;20037;-77
2024/03/14 06:30:09;;;;;;;12.73;5.82;;;;;;;5.87;100.00;101084.06;5064983;28;20418;-76
2024/03/14 06:32:36;;;;;;;9.68;5.25;;;;;;;5.91;100.00;101085.47;5042259;28;20621;-76
2024/03/14 06:35:03;;;;;;;11.30;6.40;;;;;;;5.93;100.00;101086.97;5064509;28;20060;-76
2024/03/14 06:37:28;;;;;;;12.98;6.25;;;;;;;6.00;100.00;101084.78;5065674;28;20191;-76
2024/03/14 06:39:54;;;;;;;10.27;5.35;;;;;;;6.04;100.00;101081.84;5038256;28;20071;-76
2024/03/14 06:42:20;;;;;;;13.77;5.57;;;;;;;6.11;100.00;101083.97;5051946;28;20536;-78
2024/03/14 06:44:47;;;;;;;13.82;6.85;;;;;;;6.24;100.00;101085.44;5055802;28;20021;-76
2024/03/14 06:47:13;;;;;;;13.20;6.70;;;;;;;6.56;100.00;101089.00;5067495;28;20410;-75
2024/03/14 06:49:38;;;;;;;10.98;6.55;;;;;;;7.05;100.00;101081.63;5068089;28;20024;-76
2024/03/14 06:52:09;;;;;;;12.95;6.40;;;;;;;7.44;100.00;101079.25;5052828;28;20442;-76
2024/03/14 06:54:35;;;;;;;16.77;6.80;;;;;;;8.02;100.00;101081.22;5032210;28;20116;-75
2024/03/14 06:57:00;;;;;;;12.15;6.15;;;;;;;8.10;100.00;101076.22;5047529;28;20505;-76
2024/03/14 06:59:27;;;;;;;12.50;6.35;;;;;;;8.33;100.00;101074.22;5032200;28;20384;-76
2024/03/14 07:01:54;;;;;;;13.35;5.88;;;;;;;8.35;100.00;101075.72;5054051;28;20040;-76
2024/03/14 07:04:22;;;;;;;10.95;5.72;;;;;;;8.14;100.00;101068.06;5033731;28;20032;-75
2024/03/14 07:06:48;;;;;;;16.05;5.57;;;;;;;8.00;100.00;101073.59;5047953;28;20033;-76
2024/03/14 07:09:26;;;;;;;16.38;6.20;;;;;;;7.94;100.00;101072.38;5054384;28;20426;-76
2024/03/14 07:11:53;;;;;;;12.80;5.65;;;;;;;7.91;100.00;101076.97;5047521;28;20097;-77
2024/03/14 07:14:19;;;;;;;15.32;6.13;;;;;;;7.82;100.00;101081.19;5049368;28;20028;-76
2024/03/14 07:16:45;;;;;;;15.85;6.20;;;;;;;7.75;100.00;101075.72;5067693;28;20071;-75
2024/03/14 07:19:11;;;;;;;23.58;7.05;;;;;;;7.73;100.00;101082.78;5033987;28;20032;-77
2024/03/14 07:21:38;;;;;;;15.73;6.68;;;;;;;7.84;100.00;101081.88;5049997;28;20664;-75
2024/03/14 07:24:04;;;;;;;16.13;6.28;;;;;;;7.86;100.00;101087.72;5056605;28;20037;-77
2024/03/14 07:26:35;;;;;;;16.80;7.00;;;;;;;7.90;100.00;101081.34;5051021;28;20507;-76
2024/03/14 07:29:03;;;;;;;14.63;6.47;;;;;;;7.97;100.00;101087.59;5055825;28;20040;-76
2024/03/14 07:31:29;;;;;;;19.20;7.50;;;;;;;8.16;100.00;101076.50;5032426;28;20047;-76
2024/03/14 07:33:58;;;;;;;18.75;7.38;;;;;;;8.28;100.00;101081.56;5053285;28;20391;-75
2024/03/14 07:36:29;;;;;;;23.83;7.45;;;;;;;8.88;100.00;101076.28;5066353;28;20067;-75
2024/03/14 07:38:56;;;;;;;14.75;6.63;;;;;;;8.95;100.00;101074.78;5050591;28;20523;-76
2024/03/14 07:41:22;;;;;;;18.55;6.82;;;;;;;8.89;100.00;101077.91;5062881;28;20028;-75
2024/03/14 07:43:53;;;;;;;30.05;17.95;;;;;;;8.88;100.00;101076.28;5034953;28;20067;-75
2024/03/14 07:46:19;;;;;;;18.95;10.00;;;;;;;8.83;100.00;101083.63;5069148;28;20163;-75
2024/03/14 07:48:48;;;;;;;19.40;8.43;;;;;;;8.85;100.00;101082.53;5040974;28;20097;-75
2024/03/14 07:51:15;;;;;;;10.00;6.72;;;;;;;9.13;100.00;101082.63;5067094;28;20025;-74
2024/03/14 07:53:40;;;;;;;14.82;6.50;;;;;;;9.58;100.00;101083.75;5034563;28;20387;-75
2024/03/14 07:56:09;;;;;;;16.40;6.22;;;;;;;9.81;100.00;101089.34;5063191;28;20032;-75
2024/03/14 07:58:36;;;;;;;10.93;5.60;;;;;;;9.90;100.00;101085.91;5049920;28;20387;-77
2024/03/14 08:01:07;;;;;;;9.20;5.78;;;;;;;9.86;100.00;101084.56;5062977;28;20036;-77
2024/03/14 08:03:33;;;;;;;16.30;7.40;;;;;;;9.95;100.00;101088.88;5035417;28;20043;-74
2024/03/14 08:05:59;;;;;;;16.80;5.72;;;;;;;10.65;100.00;101085.72;5048420;28;20395;-74
2024/03/14 08:08:24;;;;;;;10.02;5.65;;;;;;;11.07;100.00;101083.25;5067057;28;20042;-75
2024/03/14 08:10:50;;;;;;;13.85;4.60;;;;;;;11.39;100.00;101081.03;5051185;28;20028;-75
2024/03/14 08:13:20;;;;;;;19.40;5.53;;;;;;;11.86;100.00;101078.78;5048418;28;20481;-75
2024/03/14 08:15:59;;;;;;;13.10;4.80;;;;;;;12.08;99.36;101082.63;5049263;28;20120;-77
2024/03/14 08:18:25;;;;;;;13.82;4.97;;;;;;;11.80;99.67;101083.81;5051056;28;20040;-75
2024/03/14 08:20:55;;;;;;;13.13;6.68;;;;;;;11.63;100.00;101088.94;5031207;28;20033;-76
2024/03/14 08:23:21;;;;;;;10.00;5.07;;;;;;;11.79;100.00;101083.00;5063176;28;20024;-75
2024/03/14 08:25:47;;;;;;;10.75;4.88;;;;;;;12.27;98.01;101084.13;5048006;28;20482;-77
2024/03/14 08:28:13;;;;;;;9.15;3.90;;;;;;;12.58;94.00;101080.91;5034972;28;20040;-76
2024/03/14 08:30:39;;;;;;;9.77;3.78;;;;;;;12.79;94.42;101076.97;5055297;28;20039;-75
2024/03/14 08:33:07;;;;;;;7.65;3.92;;;;;;;13.01;92.53;101078.91;5063928;28;20495;-78
2024/03/14 08:35:36;;;;;;;6.50;3.50;;;;;;;12.58;91.10;101086.13;5049968;28;20151;-75
2024/03/14 08:38:04;;;;;;;6.20;3.20;;;;;;;12.56;91.44;101085.44;5031487;28;20072;-76
2024/03/14 08:40:30;;;;;;;7.18;3.95;;;;;;;12.86;94.56;101080.56;5003377;28;20045;-75
2024/03/14 08:42:55;;;;;;;8.13;2.85;;;;;;;13.34;89.94;101081.50;5024965;28;20047;-76
2024/03/14 08:45:21;;;;;;;6.15;3.35;;;;;;;13.22;86.03;101080.19;5026586;28;20033;-75
2024/03/14 08:47:47;;;;;;;12.73;3.67;;;;;;;13.21;87.15;101081.97;5021975;28;20405;-76
2024/03/14 08:50:14;;;;;;;8.25;3.63;;;;;;;13.62;84.01;101075.88;5027091;28;20044;-76
2024/03/14 08:52:41;;;;;;;9.10;2.80;;;;;;;13.70;83.17;101081.03;5024815;28;20138;-76
2024/03/14 08:55:23;;;;;;;10.70;3.30;;;;;;;13.25;83.60;101072.84;5023087;28;20044;-75
2024/03/14 08:57:52;;;;;;;7.22;3.08;;;;;;;13.56;85.61;101077.38;5023175;28;20039;-76
2024/03/14 09:00:21;;;;;;;6.35;3.70;;;;;;;14.07;81.25;101069.13;5025699;28;20025;-75
2024/03/14 09:02:50;;;;;;;10.45;3.10;;;;;;;14.12;80.00;101066.81;5021857;28;20467;-76
2024/03/14 09:05:20;;;;;;;9.32;3.53;;;;;;;13.76;80.65;101069.94;5008630;28;20434;-75
2024/03/14 09:07:45;;;;;;;9.25;3.83;;;;;;;14.08;81.67;101065.53;5025108;28;20065;-75
2024/03/14 09:10:23;;;;;;;7.20;3.53;;;;;;;13.70;82.20;101070.63;5024071;28;20026;-75
2024/03/14 09:12:49;;;;;;;4.90;2.90;;;;;;;13.47;82.18;101061.91;5021751;28;20052;-76
2024/03/14 09:15:15;;;;;;;5.43;3.10;;;;;;;13.29;84.18;101069.94;5026713;28;20531;-76
2024/03/14 09:17:41;;;;;;;7.32;2.92;;;;;;;13.14;84.14;101064.59;5024313;28;20167;-75
2024/03/14 09:20:09;;;;;;;7.32;3.25;;;;;;;12.93;85.37;101058.13;5025645;28;20034;-75
2024/03/14 09:22:38;;;;;;;8.15;3.25;;;;;;;12.82;85.98;101058.44;5026394;28;20120;-75
2024/03/14 09:25:03;;;;;;;9.70;3.20;;;;;;;13.14;86.10;101057.59;5019459;28;20131;-75
2024/03/14 09:27:32;;;;;;;9.70;3.00;;;;;;;13.70;83.82;101054.19;5024209;28;20052;-75
2024/03/14 09:29:58;;;;;;;9.05;2.97;;;;;;;13.69;80.98;101055.94;5027296;28;20034;-75
2024/03/14 09:32:25;;;;;;;6.50;2.97;;;;;;;13.72;81.49;101055.63;5055653;28;20025;-75
2024/03/14 09:34:51;;;;;;;7.55;3.08;;;;;;;13.56;82.77;101048.72;5029555;28;20407;-75
2024/03/14 09:37:16;;;;;;;6.55;2.90;;;;;;;13.35;84.06;101041.44;5026107;28;20037;-76
2024/03/14 09:39:42;;;;;;;4.20;2.33;;;;;;;13.56;85.11;101042.66;5032476;28;20061;-76
2024/03/14 09:42:08;;;;;;;11.30;2.92;;;;;;;13.77;83.23;101045.50;5013765;28;20036;-76
2024/03/14 09:44:35;;;;;;;9.15;3.17;;;;;;;14.01;81.50;101035.91;5027871;28;20087;-75
2024/03/14 09:47:20;;;;;;;6.22;2.38;;;;;;;14.02;81.17;101035.75;5056916;28;20068;-75
2024/03/14 09:49:54;;;;;;;7.32;3.00;;;;;;;13.90;82.48;101036.31;5005013;28;20046;-76
2024/03/14 09:52:20;;;;;;;5.45;2.53;;;;;;;13.83;81.31;101030.97;5005223;28;20038;-75
2024/03/14 09:54:49;;;;;;;5.60;2.53;;;;;;;13.87;80.23;101026.25;5029169;28;20036;-76
2024/03/14 09:57:16;;;;;;;6.00;3.00;;;;;;;14.09;81.50;101035.88;5032818;28;20030;-75
2024/03/14 09:59:42;;;;;;;4.72;2.50;;;;;;;13.67;80.30;101025.84;5031129;28;20029;-74
2024/03/14 10:02:17;;;;;;;7.10;2.53;;;;;;;13.61;81.93;101027.34;5026734;28;20044;-75
2024/03/14 10:04:43;;;;;;;12.05;2.40;;;;;;;13.82;81.09;101024.13;5030027;28;20045;-74
2024/03/14 10:07:12;;;;;;;5.03;2.70;;;;;;;13.91;81.17;101028.31;5024124;28;20033;-75
2024/03/14 10:09:38;;;;;;;6.13;2.90;;;;;;;13.97;79.50;101025.00;5027826;28;20064;-76
2024/03/14 10:12:09;;;;;;;4.40;2.67;;;;;;;13.91;81.93;101024.91;5034963;28;20159;-75
2024/03/14 10:14:34;;;;;;;10.00;2.47;;;;;;;14.09;81.03;101020.22;5028129;28;20046;-74
2024/03/14 10:17:00;;;;;;;7.00;2.85;;;;;;;14.29;78.70;101014.53;5028650;28;20041;-75
2024/03/14 10:19:30;;;;;;;5.13;2.38;;;;;;;14.26;78.36;101013.09;5023950;28;20029;-74
2024/03/14 10:21:57;;;;;;;8.18;2.28;;;;;;;14.15;77.92;101011.72;5009451;28;20025;-76
2024/03/14 10:24:27;;;;;;;5.35;2.47;;;;;;;14.14;77.91;101004.06;5031963;28;20468;-76
2024/03/14 10:26:54;;;;;;;11.25;2.50;;;;;;;14.09;78.86;101015.00;5029390;28;20033;-75
2024/03/14 10:29:22;;;;;;;6.05;2.70;;;;;;;14.13;77.43;101008.47;5030165;28;20554;-75
2024/03/14 10:31:48;;;;;;;6.47;2.28;;;;;;;14.31;79.73;101012.56;5027193;28;21486;-77
2024/03/14 10:34:14;;;;;;;6.88;2.28;;;;;;;14.48;77.26;101005.41;5026860;28;20400;-76
2024/03/14 10:36:41;;;;;;;7.18;2.40;;;;;;;14.41;78.51;101008.72;5030052;28;20042;-75
2024/03/14 10:39:16;;;;;;;5.93;2.20;;;;;;;14.39;77.26;100999.44;5024638;28;20087;-75
2024/03/14 10:41:43;;;;;;;5.95;2.45;;;;;;;14.39;76.94;101000.28;5011844;28;20029;-76
2024/03/14 10:44:21;;;;;;;5.18;2.20;;;;;;;14.47;77.58;101002.00;5025943;28;20034;-74
2024/03/14 10:46:51;;;;;;;7.38;2.17;;;;;;;14.66;77.41;101002.53;5029197;28;20057;-76
2024/03/14 10:49:22;;;;;;;3.90;2.15;;;;;;;14.70;77.23;101006.41;5028700;28;20116;-75
2024/03/14 10:51:54;;;;;;;4.60;1.85;;;;;;;14.86;75.82;100995.78;5029920;28;20480;-75
2024/03/14 10:54:26;;;;;;;10.13;2.92;;;;;;;14.98;74.29;101004.78;5029576;28;20034;-75
2024/03/14 10:56:52;;;;;;;6.93;2.60;;;;;;;15.06;76.92;101003.88;5017630;28;20087;-76
2024/03/14 10:59:22;;;;;;;4.75;2.35;;;;;;;15.16;75.44;101004.44;5027521;28;20044;-75
2024/03/14 11:01:55;;;;;;;7.32;3.17;;;;;;;15.17;72.87;100997.41;5026580;28;20519;-75
2024/03/14 11:04:21;;;;;;;8.05;2.17;;;;;;;15.14;71.97;100995.16;5027308;28;20629;-75
2024/03/14 11:06:49;;;;;;;6.07;2.20;;;;;;;15.23;74.98;100991.44;5030458;28;20036;-75
2024/03/14 11:09:24;;;;;;;3.53;2.10;;;;;;;15.15;75.49;100992.34;5024801;28;20124;-77
2024/03/14 11:12:04;;;;;;;6.72;1.95;;;;;;;15.31;74.45;100991.38;5031347;28;20052;-75
2024/03/14 11:14:39;;;;;;;2.75;1.70;;;;;;;15.36;76.66;100996.03;5029800;28;20041;-75
2024/03/14 11:17:09;;;;;;;5.13;1.98;;;;;;;15.45;70.54;100978.47;5030676;28;20057;-74
2024/03/14 11:19:39;;;;;;;5.93;1.92;;;;;;;15.44;71.82;100975.00;5030143;28;20075;-75